»·PEaware :: DAL985 KPDX-KSEA

DAL985 :: KPDX-KSEA

FLIGHT INFORMATION

Flight Status: Arrived
Operator:
Delta Air Lines
More flights by this operator :: More flights under this callsign
Pilot: Max W. (2591)
Aircraft: AIRBUS A320
(A320)
More flights by this aircraft type
Origin: KPDX Portland Intl
United States
Destination: KSEA Seattle-Tacoma Intl
United States
More flights between these airports :: More routes between these airports
Route: PTLD1 COUGA KRIEG HAWKZ6
File this flight plan on PilotEdge
Remarks:
Altitude:
(Current/Filed)
19,000ft
Speed:
(Current/Filed)
450kts
Departed: 29-Aug-18 06:50 PM
Arrived: 29-Aug-18 07:25 PM
Distance/Time
Traveled:
112nm/0:35
Distance/Time
To Go:
Arrived

Flight Plot

Page will automatically refresh every two minutes.

Flight plan parsing failed; only flown route is shown


Map Options




Map Legend


Flown Route
Filed Route
Departure Airport
Arrival Airport
Navaid (VOR, NDB)
Fix

Horizontal Profiles

Position Reports

Time Latitude Longitude Heading Altitude Ground
Speed
29-Aug-18 18:33 45.587817 -122.594861 10 25ft 0kts
29-Aug-18 18:34 45.587817 -122.594861 10 25ft 0kts
29-Aug-18 18:35 45.587817 -122.594861 10 25ft 0kts
29-Aug-18 18:36 45.587817 -122.594861 10 25ft 0kts
29-Aug-18 18:37 45.587817 -122.594861 10 25ft 0kts
29-Aug-18 18:38 45.587817 -122.594861 10 25ft 0kts
29-Aug-18 18:39 45.587817 -122.594861 10 25ft 0kts
29-Aug-18 18:40 45.587817 -122.594861 10 25ft 0kts
29-Aug-18 18:41 45.587816 -122.594861 10 25ft 0kts
29-Aug-18 18:42 45.587690 -122.594908 24 25ft 2kts
29-Aug-18 18:43 45.587315 -122.595534 77 25ft 2kts
29-Aug-18 18:44 45.587403 -122.596252 122 25ft 0kts
29-Aug-18 18:45 45.587403 -122.596251 122 25ft 0kts
29-Aug-18 18:46 45.587403 -122.596251 122 25ft 0kts
29-Aug-18 18:47 45.587357 -122.596151 122 25ft 2kts
29-Aug-18 18:48 45.585982 -122.593196 130 25ft 13kts
29-Aug-18 18:49 45.583436 -122.588177 117 25ft 16kts
29-Aug-18 18:50 45.580838 -122.584755 298 25ft 16kts
29-Aug-18 18:51 45.598848 -122.632587 299 2128ft 190kts
29-Aug-18 18:52 45.626526 -122.709720 299 5073ft 258kts
29-Aug-18 18:53 45.690935 -122.739040 1 8838ft 282kts
29-Aug-18 18:54 45.763469 -122.728338 1 11156ft 330kts
29-Aug-18 18:55 45.860247 -122.713448 1 13816ft 364kts
29-Aug-18 18:56 45.937178 -122.701543 1 16390ft 364kts
29-Aug-18 18:57 46.049932 -122.683958 1 18938ft 375kts
29-Aug-18 18:58 46.132592 -122.685282 347 19012ft 379kts
29-Aug-18 18:59 46.247077 -122.707812 347 19016ft 366kts
29-Aug-18 19:00 46.330701 -122.722612 352 19015ft 370kts
29-Aug-18 19:01 46.449913 -122.726835 353 18923ft 365kts
29-Aug-18 19:02 46.531088 -122.729787 353 17664ft 349kts
29-Aug-18 19:03 46.626888 -122.733261 353 16123ft 345kts
29-Aug-18 19:04 46.721370 -122.736687 353 15617ft 346kts
29-Aug-18 19:05 46.817203 -122.734528 14 15135ft 354kts
29-Aug-18 19:06 46.879018 -122.629488 38 14646ft 332kts
29-Aug-18 19:07 46.950978 -122.556044 11 12530ft 309kts
29-Aug-18 19:08 47.032023 -122.520917 11 11337ft 306kts
29-Aug-18 19:09 47.112167 -122.494397 2 10190ft 299kts
29-Aug-18 19:10 47.189345 -122.480238 2 10013ft 281kts
29-Aug-18 19:11 47.263793 -122.468786 1 9116ft 271kts
29-Aug-18 19:12 47.337011 -122.457639 1 8041ft 265kts
29-Aug-18 19:13 47.407366 -122.455310 355 7730ft 238kts
29-Aug-18 19:14 47.471142 -122.455372 356 6393ft 227kts
29-Aug-18 19:15 47.533236 -122.455566 358 6016ft 224kts
29-Aug-18 19:16 47.594654 -122.456230 358 5375ft 221kts
29-Aug-18 19:17 47.655884 -122.456870 358 4392ft 220kts
29-Aug-18 19:18 47.713299 -122.442616 53 4026ft 209kts
29-Aug-18 19:19 47.713395 -122.368368 97 4012ft 206kts
29-Aug-18 19:20 47.677133 -122.315130 162 4002ft 211kts
29-Aug-18 19:21 47.620552 -122.309571 181 3496ft 188kts
29-Aug-18 19:22 47.569862 -122.310003 180 2427ft 182kts
29-Aug-18 19:23 47.521060 -122.310237 182 1532ft 156kts
29-Aug-18 19:24 47.481866 -122.310882 180 753ft 138kts
29-Aug-18 19:25 47.448586 -122.310716 165 358ft 57kts
29-Aug-18 19:26 47.446887 -122.305817 20 358ft 19kts
29-Aug-18 19:27 47.448541 -122.303971 34 358ft 0kts

Navigation Log

Ident Type
Flight plan parsing failed, navigation log unavailable